Time;durP1;ratioP1;P1;durP2;ratioP2;P2;SDS_P1;SDS_P2;PMS_P1;PMS_P2;Temp;Humidity;BMP_temperature;BMP_pressure;BME280_temperature;BME280_humidity;BME280_pressure;Samples;Min_cycle;Max_cycle;Signal;HPM_P1;HPM_P2
2023/04/07 00:01:01;;;;;;;24.10;19.60;;;;;;;;;;5051902;28;20037;-76
2023/04/07 00:03:27;;;;;;;25.90;19.95;;;;;;;;;;5052476;28;20115;-77
2023/04/07 00:05:53;;;;;;;24.95;20.38;;;;;;;;;;5048560;28;20167;-77
2023/04/07 00:08:19;;;;;;;24.75;20.08;;;;;;;;;;5052069;28;20049;-76
2023/04/07 00:10:45;;;;;;;26.20;21.27;;;;;;;;;;5046286;28;20473;-77
2023/04/07 00:13:11;;;;;;;28.17;20.40;;;;;;;;;;5042284;28;20134;-77
2023/04/07 00:15:37;;;;;;;28.55;22.38;;;;;;;;;;5051963;28;20389;-76
2023/04/07 00:18:03;;;;;;;25.73;20.80;;;;;;;;;;5051871;28;20107;-76
2023/04/07 00:20:29;;;;;;;26.38;21.88;;;;;;;;;;5042770;28;20067;-76
2023/04/07 00:22:55;;;;;;;25.38;20.65;;;;;;;;;;5048243;28;20140;-76
2023/04/07 00:25:21;;;;;;;27.75;22.58;;;;;;;;;;5043679;28;20080;-74
2023/04/07 00:27:47;;;;;;;28.92;22.85;;;;;;;;;;5052379;28;20378;-76
2023/04/07 00:30:14;;;;;;;27.58;22.08;;;;;;;;;;5051524;28;20134;-75
2023/04/07 00:32:40;;;;;;;28.85;22.33;;;;;;;;;;5020905;28;20045;-75
2023/04/07 00:35:06;;;;;;;27.65;22.88;;;;;;;;;;5037870;28;20088;-75
2023/04/07 00:37:32;;;;;;;27.50;22.10;;;;;;;;;;5021439;28;20503;-75
2023/04/07 00:39:58;;;;;;;27.67;21.83;;;;;;;;;;5021350;28;20098;-76
2023/04/07 00:42:25;;;;;;;30.15;22.77;;;;;;;;;;5021269;28;20129;-76
2023/04/07 00:44:51;;;;;;;28.00;23.05;;;;;;;;;;4998256;28;20053;-75
2023/04/07 00:47:17;;;;;;;29.13;22.55;;;;;;;;;;5014882;28;20045;-75
2023/04/07 00:49:43;;;;;;;28.58;22.60;;;;;;;;;;5026647;28;20045;-75
2023/04/07 00:52:10;;;;;;;27.85;22.27;;;;;;;;;;5001354;28;20053;-75
2023/04/07 00:54:36;;;;;;;27.42;21.33;;;;;;;;;;5017388;28;20124;-76
2023/04/07 00:57:02;;;;;;;28.00;21.65;;;;;;;;;;5035318;28;20048;-76
2023/04/07 00:59:30;;;;;;;29.92;21.95;;;;;;;;;;5035017;28;20125;-75
2023/04/07 01:02:16;;;;;;;28.73;22.25;;;;;;;;;;5017257;28;20053;-75
2023/04/07 01:04:42;;;;;;;;;;;;;;;;;;5018028;28;20045;-75
2023/04/07 01:07:11;;;;;;;34.15;24.92;;;;;;;;;;5035181;28;20358;-75
2023/04/07 01:09:48;;;;;;;30.80;23.77;;;;;;;;;;5020355;28;20053;-76
2023/04/07 01:12:14;;;;;;;30.95;23.08;;;;;;;;;;5054844;28;20486;-76
2023/04/07 01:14:41;;;;;;;34.20;23.75;;;;;;;;;;5026010;28;20045;-76
2023/04/07 01:17:09;;;;;;;32.45;24.38;;;;;;;;;;5035197;28;20043;-76
2023/04/07 01:19:54;;;;;;;33.03;24.73;;;;;;;;;;5033169;28;20364;-76
2023/04/07 01:22:28;;;;;;;36.08;25.45;;;;;;;;;;5017134;28;20145;-76
2023/04/07 01:25:13;;;;;;;37.45;26.77;;;;;;;;;;5015529;28;20045;-76
2023/04/07 01:27:45;;;;;;;36.80;25.95;;;;;;;;;;5016607;28;20119;-76
2023/04/07 01:30:12;;;;;;;39.05;26.98;;;;;;;;;;5037304;28;20152;-75
2023/04/07 01:32:40;;;;;;;41.28;27.52;;;;;;;;;;5036679;28;20102;-75
2023/04/07 01:35:10;;;;;;;39.38;28.20;;;;;;;;;;5021821;28;20099;-76
2023/04/07 01:37:37;;;;;;;43.33;29.60;;;;;;;;;;5001334;28;20038;-76
2023/04/07 01:40:03;;;;;;;43.63;28.42;;;;;;;;;;5048924;28;20502;-76
2023/04/07 01:42:30;;;;;;;42.30;29.35;;;;;;;;;;5047677;28;20076;-76
2023/04/07 01:44:57;;;;;;;43.15;29.75;;;;;;;;;;5053547;28;20440;-76
2023/04/07 01:47:26;;;;;;;45.58;30.25;;;;;;;;;;5052641;28;20156;-76
2023/04/07 01:49:53;;;;;;;43.30;29.20;;;;;;;;;;5047045;28;20049;-76
2023/04/07 01:52:20;;;;;;;50.97;31.00;;;;;;;;;;5036353;28;20104;-76
2023/04/07 01:54:46;;;;;;;50.00;32.08;;;;;;;;;;5005946;28;20052;-76
2023/04/07 01:57:12;;;;;;;52.03;33.50;;;;;;;;;;5034416;28;20107;-76
2023/04/07 01:59:38;;;;;;;46.55;31.40;;;;;;;;;;5035397;28;20037;-76
2023/04/07 02:02:04;;;;;;;51.20;31.17;;;;;;;;;;5034145;28;20071;-76
2023/04/07 02:04:37;;;;;;;54.35;32.70;;;;;;;;;;5026045;28;20157;-76
2023/04/07 02:07:16;;;;;;;58.67;33.72;;;;;;;;;;5019771;28;20090;-76
2023/04/07 02:09:43;;;;;;;56.28;33.75;;;;;;;;;;5042515;28;20048;-76
2023/04/07 02:12:11;;;;;;;52.28;32.50;;;;;;;;;;5035237;28;20050;-77
2023/04/07 02:14:37;;;;;;;50.17;32.85;;;;;;;;;;5027392;28;20043;-76
2023/04/07 02:17:04;;;;;;;54.55;32.80;;;;;;;;;;5016548;28;20052;-76
2023/04/07 02:19:33;;;;;;;60.25;34.42;;;;;;;;;;5026569;28;20049;-76
2023/04/07 02:22:00;;;;;;;54.85;33.05;;;;;;;;;;5036757;28;20056;-76
2023/04/07 02:24:26;;;;;;;55.25;33.63;;;;;;;;;;5057080;28;20049;-76
2023/04/07 02:26:52;;;;;;;55.88;34.40;;;;;;;;;;5057561;28;20045;-76
2023/04/07 02:29:18;;;;;;;63.08;35.17;;;;;;;;;;5053858;28;20444;-75
2023/04/07 02:31:44;;;;;;;64.70;34.55;;;;;;;;;;5021159;28;20102;-75
2023/04/07 02:34:10;;;;;;;59.42;35.03;;;;;;;;;;5033617;28;20053;-76
2023/04/07 02:36:36;;;;;;;60.63;34.30;;;;;;;;;;4999762;28;20045;-76
2023/04/07 02:39:03;;;;;;;56.03;35.42;;;;;;;;;;5033683;28;20135;-76
2023/04/07 02:41:29;;;;;;;54.25;33.40;;;;;;;;;;5032044;28;20136;-76
2023/04/07 02:43:55;;;;;;;63.00;37.92;;;;;;;;;;5010932;28;20045;-76
2023/04/07 02:46:21;;;;;;;54.47;33.40;;;;;;;;;;5002643;28;20047;-76
2023/04/07 02:48:47;;;;;;;64.93;35.85;;;;;;;;;;5019804;28;20044;-76
2023/04/07 02:51:13;;;;;;;66.68;36.95;;;;;;;;;;5013187;28;20049;-76
2023/04/07 02:53:39;;;;;;;71.45;37.47;;;;;;;;;;5041020;28;20033;-76
2023/04/07 02:56:05;;;;;;;62.22;36.25;;;;;;;;;;5045819;28;20393;-76
2023/04/07 02:58:31;;;;;;;67.78;36.13;;;;;;;;;;5033375;28;20041;-77
2023/04/07 03:00:57;;;;;;;81.35;38.55;;;;;;;;;;5015428;28;20060;-76
2023/04/07 03:03:23;;;;;;;64.97;37.42;;;;;;;;;;5032306;28;20054;-76
2023/04/07 03:05:49;;;;;;;71.15;38.67;;;;;;;;;;5032938;28;20447;-76
2023/04/07 03:08:15;;;;;;;69.97;38.25;;;;;;;;;;5035081;28;20387;-76
2023/04/07 03:10:42;;;;;;;74.28;37.72;;;;;;;;;;5043969;28;20033;-76
2023/04/07 03:13:08;;;;;;;69.32;36.88;;;;;;;;;;5032796;28;20465;-76
2023/04/07 03:15:35;;;;;;;62.05;36.95;;;;;;;;;;5023674;28;20041;-76
2023/04/07 03:18:01;;;;;;;65.65;36.42;;;;;;;;;;5018950;28;20057;-76
2023/04/07 03:20:27;;;;;;;68.78;37.47;;;;;;;;;;5032618;28;20087;-76
2023/04/07 03:22:53;;;;;;;65.95;37.70;;;;;;;;;;5014897;28;20486;-77
2023/04/07 03:25:20;;;;;;;69.47;37.80;;;;;;;;;;5022838;28;20052;-76
2023/04/07 03:27:46;;;;;;;63.40;36.13;;;;;;;;;;5034328;28;20052;-77
2023/04/07 03:30:12;;;;;;;68.55;38.03;;;;;;;;;;5048776;28;20045;-76
2023/04/07 03:32:38;;;;;;;60.50;34.55;;;;;;;;;;5047762;28;20083;-76
2023/04/07 03:35:04;;;;;;;68.28;36.55;;;;;;;;;;5030470;28;20046;-77
2023/04/07 03:37:30;;;;;;;63.78;35.40;;;;;;;;;;5016435;28;20045;-77
2023/04/07 03:39:56;;;;;;;59.90;34.28;;;;;;;;;;5026039;28;20051;-76
2023/04/07 03:42:22;;;;;;;55.70;34.17;;;;;;;;;;4996809;28;20042;-76
2023/04/07 03:44:48;;;;;;;66.65;35.28;;;;;;;;;;5039640;28;20040;-76
2023/04/07 03:47:14;;;;;;;61.38;35.58;;;;;;;;;;5050630;28;20481;-76
2023/04/07 03:49:40;;;;;;;57.83;33.97;;;;;;;;;;5021063;28;20037;-76
2023/04/07 03:52:06;;;;;;;63.60;35.17;;;;;;;;;;5048393;28;20048;-75
2023/04/07 03:54:34;;;;;;;60.53;34.20;;;;;;;;;;5043728;28;20116;-75
2023/04/07 03:57:01;;;;;;;57.30;33.85;;;;;;;;;;5032788;28;20057;-76
2023/04/07 03:59:27;;;;;;;57.58;33.88;;;;;;;;;;5034766;28;20432;-75
2023/04/07 04:01:53;;;;;;;53.17;32.33;;;;;;;;;;5040257;28;20065;-75
2023/04/07 04:04:19;;;;;;;55.17;33.25;;;;;;;;;;5040966;28;20044;-75
2023/04/07 04:06:46;;;;;;;57.63;35.90;;;;;;;;;;5044917;28;20045;-75
2023/04/07 04:09:13;;;;;;;61.03;35.58;;;;;;;;;;5023652;28;20045;-75
2023/04/07 04:11:39;;;;;;;55.70;33.13;;;;;;;;;;5020033;28;20041;-75
2023/04/07 04:14:05;;;;;;;69.93;36.55;;;;;;;;;;5040248;28;20139;-75
2023/04/07 04:16:31;;;;;;;55.63;33.47;;;;;;;;;;5037366;28;20155;-75
2023/04/07 04:18:57;;;;;;;56.85;33.90;;;;;;;;;;5041423;28;20052;-75
2023/04/07 04:21:23;;;;;;;56.70;33.83;;;;;;;;;;5018281;28;20068;-76
2023/04/07 04:23:49;;;;;;;55.78;34.05;;;;;;;;;;5018605;28;20077;-76
2023/04/07 04:26:15;;;;;;;55.65;33.72;;;;;;;;;;5036131;28;20041;-76
2023/04/07 04:28:41;;;;;;;52.30;33.40;;;;;;;;;;5018188;28;20042;-76
2023/04/07 04:31:07;;;;;;;49.38;32.10;;;;;;;;;;5047127;28;20164;-76
2023/04/07 04:33:33;;;;;;;47.55;31.30;;;;;;;;;;5038112;28;20488;-76
2023/04/07 04:36:00;;;;;;;51.15;31.83;;;;;;;;;;5055633;28;20472;-76
2023/04/07 04:38:26;;;;;;;46.13;29.48;;;;;;;;;;5056047;28;20437;-77
2023/04/07 04:40:52;;;;;;;46.58;31.10;;;;;;;;;;5037882;28;20049;-75
2023/04/07 04:43:18;;;;;;;51.47;31.45;;;;;;;;;;5024099;28;20375;-76
2023/04/07 04:45:44;;;;;;;43.92;29.15;;;;;;;;;;5055696;28;20124;-76
2023/04/07 04:48:10;;;;;;;46.15;28.35;;;;;;;;;;5054977;28;20045;-75
2023/04/07 04:50:36;;;;;;;47.53;29.30;;;;;;;;;;5054595;28;20041;-75
2023/04/07 04:53:02;;;;;;;50.78;31.42;;;;;;;;;;5055206;28;20440;-76
2023/04/07 04:55:28;;;;;;;40.97;27.75;;;;;;;;;;5055172;28;20033;-77
2023/04/07 04:57:54;;;;;;;42.85;28.20;;;;;;;;;;5055407;28;20481;-74
2023/04/07 05:00:20;;;;;;;40.42;27.40;;;;;;;;;;5054739;28;20045;-74
2023/04/07 05:02:46;;;;;;;39.70;25.50;;;;;;;;;;5037497;28;20091;-75
2023/04/07 05:05:13;;;;;;;41.08;27.27;;;;;;;;;;5054929;28;20462;-75
2023/04/07 05:07:39;;;;;;;37.25;25.58;;;;;;;;;;5053399;28;20053;-74
2023/04/07 05:10:06;;;;;;;42.95;27.33;;;;;;;;;;5020516;28;20398;-75
2023/04/07 05:12:32;;;;;;;38.92;26.23;;;;;;;;;;5055175;28;20455;-75
2023/04/07 05:14:58;;;;;;;36.28;24.45;;;;;;;;;;5055924;28;20045;-75
2023/04/07 05:17:24;;;;;;;36.50;24.75;;;;;;;;;;5042887;28;20048;-75
2023/04/07 05:19:50;;;;;;;37.72;25.52;;;;;;;;;;5057843;28;20374;-74
2023/04/07 05:22:16;;;;;;;37.15;25.30;;;;;;;;;;5054868;28;20041;-76
2023/04/07 05:24:42;;;;;;;35.58;25.70;;;;;;;;;;5054830;28;20049;-75
2023/04/07 05:27:08;;;;;;;39.35;24.73;;;;;;;;;;5048830;28;20064;-75
2023/04/07 05:29:35;;;;;;;37.58;25.52;;;;;;;;;;5036564;28;20059;-75
2023/04/07 05:32:01;;;;;;;40.67;26.83;;;;;;;;;;5053594;28;20506;-75
2023/04/07 05:34:27;;;;;;;47.90;27.67;;;;;;;;;;5052437;28;20107;-75
2023/04/07 05:36:53;;;;;;;42.30;27.58;;;;;;;;;;5034834;28;20111;-75
2023/04/07 05:39:19;;;;;;;39.42;27.13;;;;;;;;;;5036212;28;20470;-75
2023/04/07 05:41:45;;;;;;;36.95;26.35;;;;;;;;;;5036670;28;20083;-76
2023/04/07 05:44:11;;;;;;;38.47;25.90;;;;;;;;;;5019843;28;20040;-75
2023/04/07 05:46:38;;;;;;;39.20;25.98;;;;;;;;;;5054184;28;20135;-76
2023/04/07 05:49:04;;;;;;;35.45;25.40;;;;;;;;;;5034974;28;20086;-75
2023/04/07 05:51:30;;;;;;;37.55;25.80;;;;;;;;;;5018655;28;20049;-75
2023/04/07 05:53:58;;;;;;;34.45;24.63;;;;;;;;;;5054039;28;20041;-76
2023/04/07 05:56:25;;;;;;;34.22;24.40;;;;;;;;;;5054448;28;20124;-76
2023/04/07 05:58:52;;;;;;;35.08;24.42;;;;;;;;;;5053733;28;20052;-76
2023/04/07 06:01:18;;;;;;;35.97;24.98;;;;;;;;;;5035590;28;20052;-76
2023/04/07 06:03:44;;;;;;;33.15;23.80;;;;;;;;;;5018990;28;20087;-76
2023/04/07 06:06:10;;;;;;;34.03;24.80;;;;;;;;;;5019165;28;20404;-77
2023/04/07 06:08:36;;;;;;;32.72;23.50;;;;;;;;;;5017437;28;20397;-77
2023/04/07 06:11:02;;;;;;;33.17;23.85;;;;;;;;;;5053906;28;20492;-77
2023/04/07 06:13:28;;;;;;;30.70;22.85;;;;;;;;;;5019928;28;20385;-77
2023/04/07 06:15:55;;;;;;;32.15;22.08;;;;;;;;;;5052736;28;20128;-77
2023/04/07 06:18:21;;;;;;;32.40;23.00;;;;;;;;;;5002929;28;20473;-78
2023/04/07 06:20:47;;;;;;;30.10;21.73;;;;;;;;;;5053483;28;20393;-77
2023/04/07 06:23:13;;;;;;;31.35;23.40;;;;;;;;;;5034870;28;20047;-78
2023/04/07 06:25:40;;;;;;;31.52;23.67;;;;;;;;;;5035492;28;20048;-78
2023/04/07 06:28:06;;;;;;;30.80;22.95;;;;;;;;;;5035489;28;20052;-77
2023/04/07 06:30:32;;;;;;;31.27;23.05;;;;;;;;;;5037301;28;20056;-78
2023/04/07 06:32:58;;;;;;;29.00;22.52;;;;;;;;;;5051797;28;20128;-77
2023/04/07 06:35:25;;;;;;;33.95;22.77;;;;;;;;;;5052682;28;20080;-78
2023/04/07 06:37:51;;;;;;;33.38;24.15;;;;;;;;;;5032385;28;20063;-78
2023/04/07 06:40:18;;;;;;;31.50;22.77;;;;;;;;;;5052560;28;20044;-77
2023/04/07 06:42:44;;;;;;;29.05;22.20;;;;;;;;;;5052690;28;20143;-78
2023/04/07 06:45:10;;;;;;;31.05;22.23;;;;;;;;;;5043914;28;20076;-77
2023/04/07 06:47:37;;;;;;;27.83;22.55;;;;;;;;;;5053025;28;20140;-78
2023/04/07 06:50:03;;;;;;;27.23;21.55;;;;;;;;;;5035047;28;20097;-78
2023/04/07 06:52:29;;;;;;;28.73;21.10;;;;;;;;;;5051159;28;20498;-78
2023/04/07 06:54:55;;;;;;;28.90;20.25;;;;;;;;;;5051283;28;20127;-78
2023/04/07 06:57:21;;;;;;;27.52;20.52;;;;;;;;;;5044925;28;20048;-78
2023/04/07 06:59:47;;;;;;;25.88;19.63;;;;;;;;;;5052040;28;20041;-77
2023/04/07 07:02:13;;;;;;;22.38;17.83;;;;;;;;;;5053268;28;20051;-77
2023/04/07 07:04:39;;;;;;;23.67;18.33;;;;;;;;;;5047730;28;20351;-77
2023/04/07 07:07:05;;;;;;;25.05;19.20;;;;;;;;;;5052104;28;20155;-78
2023/04/07 07:09:31;;;;;;;27.52;20.65;;;;;;;;;;5052773;28;20057;-78
2023/04/07 07:11:57;;;;;;;26.25;18.80;;;;;;;;;;5049588;28;20504;-77
2023/04/07 07:14:23;;;;;;;24.98;19.90;;;;;;;;;;5028566;28;20048;-77
2023/04/07 07:16:49;;;;;;;24.75;18.52;;;;;;;;;;5051655;28;20041;-78
2023/04/07 07:19:15;;;;;;;24.67;18.40;;;;;;;;;;5050068;28;20076;-78
2023/04/07 07:21:41;;;;;;;22.23;17.48;;;;;;;;;;5045665;28;20041;-77
2023/04/07 07:24:07;;;;;;;24.73;18.13;;;;;;;;;;5050563;28;20102;-78
2023/04/07 07:26:33;;;;;;;22.40;17.95;;;;;;;;;;5051866;28;20485;-78
2023/04/07 07:28:59;;;;;;;23.45;17.55;;;;;;;;;;5052485;28;20099;-78
2023/04/07 07:31:25;;;;;;;23.00;17.77;;;;;;;;;;5044616;28;20061;-78
2023/04/07 07:33:54;;;;;;;22.98;17.40;;;;;;;;;;5052235;28;20099;-78
2023/04/07 07:36:20;;;;;;;21.10;16.48;;;;;;;;;;5034550;28;20375;-78
2023/04/07 07:38:46;;;;;;;20.23;15.98;;;;;;;;;;5018149;28;20060;-77
2023/04/07 07:41:12;;;;;;;21.38;16.05;;;;;;;;;;5033794;28;20355;-78
2023/04/07 07:43:38;;;;;;;22.90;16.48;;;;;;;;;;5046832;28;20049;-78
2023/04/07 07:46:04;;;;;;;20.60;15.73;;;;;;;;;;5052301;28;20044;-79
2023/04/07 07:48:31;;;;;;;19.58;14.93;;;;;;;;;;5045060;28;20048;-78
2023/04/07 07:50:57;;;;;;;21.25;14.65;;;;;;;;;;5050763;28;20045;-78
2023/04/07 07:53:23;;;;;;;16.70;13.32;;;;;;;;;;5051831;28;20048;-78
2023/04/07 07:55:49;;;;;;;17.75;14.75;;;;;;;;;;5048471;28;20087;-77
2023/04/07 07:58:15;;;;;;;19.77;14.90;;;;;;;;;;5052568;28;20044;-78
2023/04/07 08:00:41;;;;;;;18.05;14.55;;;;;;;;;;5047543;28;20081;-78
2023/04/07 08:03:07;;;;;;;20.13;14.70;;;;;;;;;;5052289;28;20040;-77
2023/04/07 08:05:33;;;;;;;17.48;14.15;;;;;;;;;;5052712;28;20041;-77
2023/04/07 08:07:59;;;;;;;18.00;14.40;;;;;;;;;;5050072;28;20462;-74
2023/04/07 08:10:25;;;;;;;17.67;14.07;;;;;;;;;;5032728;28;20049;-76
2023/04/07 08:12:51;;;;;;;18.10;14.07;;;;;;;;;;5054978;28;20055;-75
2023/04/07 08:15:17;;;;;;;16.67;14.15;;;;;;;;;;5027971;28;20055;-75
2023/04/07 08:17:43;;;;;;;18.70;14.18;;;;;;;;;;5051582;28;20041;-76
2023/04/07 08:20:10;;;;;;;20.17;14.20;;;;;;;;;;5042252;28;20378;-75
2023/04/07 08:22:36;;;;;;;18.67;13.80;;;;;;;;;;5050880;28;20105;-75
2023/04/07 08:25:03;;;;;;;18.77;14.80;;;;;;;;;;5050540;28;20170;-76
2023/04/07 08:27:29;;;;;;;18.92;15.55;;;;;;;;;;5033964;28;20170;-76
2023/04/07 08:30:05;;;;;;;17.50;14.02;;;;;;;;;;5017368;28;20049;-76
2023/04/07 08:32:35;;;;;;;16.70;13.40;;;;;;;;;;5041675;28;20042;-75
2023/04/07 08:35:01;;;;;;;18.33;14.05;;;;;;;;;;5013735;28;20045;-76
2023/04/07 08:37:27;;;;;;;18.05;14.18;;;;;;;;;;5013725;28;20049;-75
2023/04/07 08:39:53;;;;;;;16.63;13.77;;;;;;;;;;5031672;28;20044;-75
2023/04/07 08:42:21;;;;;;;18.50;14.63;;;;;;;;;;5024572;28;20101;-75
2023/04/07 08:44:50;;;;;;;19.50;14.38;;;;;;;;;;4997434;28;20048;-76
2023/04/07 08:47:16;;;;;;;18.73;14.85;;;;;;;;;;5031226;28;20053;-75
2023/04/07 08:49:44;;;;;;;19.55;16.48;;;;;;;;;;5027690;28;20034;-77
2023/04/07 08:52:11;;;;;;;19.77;15.80;;;;;;;;;;5014358;28;20049;-76
2023/04/07 08:54:37;;;;;;;18.52;15.13;;;;;;;;;;5035498;28;20046;-76
2023/04/07 08:57:04;;;;;;;18.27;15.70;;;;;;;;;;5033740;28;20049;-76
2023/04/07 08:59:32;;;;;;;20.90;15.85;;;;;;;;;;5020663;28;20508;-76
2023/04/07 09:01:59;;;;;;;22.20;16.70;;;;;;;;;;5054761;28;20045;-77
2023/04/07 09:04:26;;;;;;;20.83;16.73;;;;;;;;;;5043629;28;20489;-76
2023/04/07 09:06:52;;;;;;;21.73;17.42;;;;;;;;;;5034934;28;20068;-77
2023/04/07 09:09:18;;;;;;;21.33;17.00;;;;;;;;;;5015055;28;20045;-76
2023/04/07 09:11:44;;;;;;;22.38;17.90;;;;;;;;;;5032653;28;20175;-76
2023/04/07 09:14:10;;;;;;;25.08;19.50;;;;;;;;;;5033819;28;20068;-76
2023/04/07 09:16:37;;;;;;;23.27;17.42;;;;;;;;;;5016150;28;20081;-77
2023/04/07 09:19:03;;;;;;;21.75;17.23;;;;;;;;;;5015426;28;20045;-76
2023/04/07 09:21:48;;;;;;;21.88;17.88;;;;;;;;;;5033737;28;20375;-77
2023/04/07 09:24:25;;;;;;;19.63;16.23;;;;;;;;;;5034492;28;20402;-76
2023/04/07 09:26:52;;;;;;;18.00;15.13;;;;;;;;;;5034862;28;20041;-76
2023/04/07 09:29:18;;;;;;;18.85;14.60;;;;;;;;;;5016874;28;20049;-76
2023/04/07 09:31:46;;;;;;;19.02;15.55;;;;;;;;;;5033882;28;20569;-76
2023/04/07 09:34:27;;;;;;;20.73;16.42;;;;;;;;;;5016749;28;20071;-77
2023/04/07 09:36:54;;;;;;;21.00;16.38;;;;;;;;;;5034786;28;20338;-76
2023/04/07 09:39:20;;;;;;;19.48;15.60;;;;;;;;;;5016224;28;20513;-76
2023/04/07 09:41:46;;;;;;;17.65;14.02;;;;;;;;;;5026228;28;20049;-76
2023/04/07 09:44:12;;;;;;;16.70;13.40;;;;;;;;;;5016115;28;20045;-76
2023/04/07 09:47:08;;;;;;;19.92;13.40;;;;;;;;;;5034328;28;20129;-76
2023/04/07 09:49:47;;;;;;;15.83;13.10;;;;;;;;;;5001164;28;20049;-77
2023/04/07 09:52:13;;;;;;;16.85;13.50;;;;;;;;;;5032110;28;20370;-77
2023/04/07 09:54:40;;;;;;;17.00;13.40;;;;;;;;;;5033527;28;20052;-77
2023/04/07 09:57:07;;;;;;;15.43;13.15;;;;;;;;;;5033382;28;20528;-77
2023/04/07 09:59:34;;;;;;;16.08;13.57;;;;;;;;;;5014178;28;20038;-77
2023/04/07 10:02:01;;;;;;;18.20;14.02;;;;;;;;;;5022542;28;20155;-77
2023/04/07 10:04:30;;;;;;;15.90;13.43;;;;;;;;;;5011268;28;20046;-76
2023/04/07 10:06:57;;;;;;;15.52;12.82;;;;;;;;;;5021844;28;20461;-76
2023/04/07 10:09:24;;;;;;;12.68;10.65;;;;;;;;;;5032358;28;20099;-77
2023/04/07 10:11:53;;;;;;;11.60;9.48;;;;;;;;;;5015526;28;20456;-77
2023/04/07 10:14:20;;;;;;;12.38;10.20;;;;;;;;;;5017883;28;20049;-76
2023/04/07 10:16:50;;;;;;;11.45;8.30;;;;;;;;;;5016837;28;20481;-76
2023/04/07 10:19:17;;;;;;;10.07;8.60;;;;;;;;;;5015876;28;20524;-75
2023/04/07 10:21:43;;;;;;;10.93;8.98;;;;;;;;;;5013757;28;20052;-76
2023/04/07 10:24:19;;;;;;;12.15;9.68;;;;;;;;;;5012599;28;20362;-76
2023/04/07 10:26:47;;;;;;;14.07;10.10;;;;;;;;;;5030218;28;20506;-75
2023/04/07 10:29:14;;;;;;;10.93;9.65;;;;;;;;;;4996286;28;20045;-75
2023/04/07 10:31:41;;;;;;;12.10;9.93;;;;;;;;;;5032543;28;20068;-74
2023/04/07 10:34:07;;;;;;;11.30;9.77;;;;;;;;;;5050509;28;20049;-75
2023/04/07 10:36:33;;;;;;;11.88;10.57;;;;;;;;;;5048565;28;20045;-75
2023/04/07 10:39:08;;;;;;;13.77;10.80;;;;;;;;;;5049282;28;20128;-75
2023/04/07 10:41:38;;;;;;;14.27;11.90;;;;;;;;;;5044939;28;20464;-74
2023/04/07 10:44:08;;;;;;;13.68;11.30;;;;;;;;;;5043224;28;20045;-76
2023/04/07 10:46:43;;;;;;;13.88;10.93;;;;;;;;;;5053181;28;20064;-76
2023/04/07 10:49:12;;;;;;;13.30;11.43;;;;;;;;;;5052013;28;20397;-78
2023/04/07 10:51:38;;;;;;;13.75;11.85;;;;;;;;;;5040975;28;20128;-78
2023/04/07 10:54:16;;;;;;;15.15;11.98;;;;;;;;;;5031910;28;20362;-76
2023/04/07 10:57:01;;;;;;;14.23;12.10;;;;;;;;;;5031325;28;20045;-77
2023/04/07 10:59:28;;;;;;;13.95;11.65;;;;;;;;;;5031808;28;20132;-77
2023/04/07 11:02:16;;;;;;;13.07;10.93;;;;;;;;;;5031755;28;20069;-77
2023/04/07 11:04:46;;;;;;;13.90;11.85;;;;;;;;;;5031539;28;20049;-76
2023/04/07 11:07:13;;;;;;;15.35;12.25;;;;;;;;;;5031860;28;20389;-76
2023/04/07 11:09:42;;;;;;;15.05;11.00;;;;;;;;;;5031428;28;20049;-76
2023/04/07 11:12:09;;;;;;;13.82;10.98;;;;;;;;;;5031439;28;20060;-79
2023/04/07 11:14:39;;;;;;;13.18;10.57;;;;;;;;;;5031806;28;20045;-76
2023/04/07 11:17:07;;;;;;;11.18;9.43;;;;;;;;;;5039206;28;20045;-76
2023/04/07 11:19:50;;;;;;;11.57;9.85;;;;;;;;;;5037179;28;20056;-78
2023/04/07 11:22:16;;;;;;;13.85;10.43;;;;;;;;;;5031599;28;20053;-76
2023/04/07 11:24:43;;;;;;;13.57;8.95;;;;;;;;;;5032803;28;20037;-77
2023/04/07 11:27:13;;;;;;;13.52;9.73;;;;;;;;;;5031754;28;20072;-77
2023/04/07 11:29:39;;;;;;;11.85;9.43;;;;;;;;;;5031444;28;20045;-77
2023/04/07 11:32:05;;;;;;;9.82;8.30;;;;;;;;;;5032378;28;20053;-77
2023/04/07 11:34:35;;;;;;;10.40;8.52;;;;;;;;;;5032595;28;20058;-78
2023/04/07 11:37:20;;;;;;;9.90;8.23;;;;;;;;;;5032497;28;20047;-78
2023/04/07 11:39:52;;;;;;;9.07;7.75;;;;;;;;;;5014791;28;20490;-77
2023/04/07 11:42:35;;;;;;;13.02;8.82;;;;;;;;;;5013054;28;20215;-78
2023/04/07 11:45:01;;;;;;;9.57;7.57;;;;;;;;;;5032419;28;20099;-77
2023/04/07 11:47:34;;;;;;;9.43;7.80;;;;;;;;;;5032368;28;20136;-77
2023/04/07 11:50:00;;;;;;;9.07;7.65;;;;;;;;;;4996321;28;20056;-77
2023/04/07 11:52:26;;;;;;;9.43;7.93;;;;;;;;;;5031425;28;20053;-77
2023/04/07 11:54:52;;;;;;;8.90;7.18;;;;;;;;;;4997908;28;20048;-77
2023/04/07 11:57:25;;;;;;;8.88;7.72;;;;;;;;;;5020462;28;20110;-77
2023/04/07 11:59:51;;;;;;;10.30;7.65;;;;;;;;;;5017613;28;20198;-77
2023/04/07 12:02:33;;;;;;;8.65;7.65;;;;;;;;;;5034644;28;20045;-76
2023/04/07 12:04:59;;;;;;;8.77;7.57;;;;;;;;;;5031952;28;20041;-77
2023/04/07 12:07:25;;;;;;;8.23;7.32;;;;;;;;;;5031994;28;20053;-77
2023/04/07 12:09:53;;;;;;;8.90;7.45;;;;;;;;;;5030793;28;20129;-76
2023/04/07 12:12:26;;;;;;;9.02;7.50;;;;;;;;;;5014163;28;20057;-77
2023/04/07 12:14:52;;;;;;;10.45;7.47;;;;;;;;;;5032384;28;20052;-77
2023/04/07 12:17:22;;;;;;;8.80;7.18;;;;;;;;;;5014474;28;20064;-76
2023/04/07 12:19:48;;;;;;;9.27;7.60;;;;;;;;;;4997500;28;20041;-77
2023/04/07 12:22:15;;;;;;;8.35;7.45;;;;;;;;;;5031547;28;20057;-77
2023/04/07 12:24:41;;;;;;;10.23;8.13;;;;;;;;;;5032281;28;20053;-77
2023/04/07 12:27:07;;;;;;;9.25;8.10;;;;;;;;;;5032817;28;20124;-78
2023/04/07 12:29:34;;;;;;;9.27;7.72;;;;;;;;;;5035891;28;20041;-77
2023/04/07 12:32:00;;;;;;;10.30;8.07;;;;;;;;;;5017847;28;20409;-77
2023/04/07 12:34:26;;;;;;;10.15;8.30;;;;;;;;;;5017900;28;20057;-77
2023/04/07 12:36:52;;;;;;;8.80;7.72;;;;;;;;;;5017720;28;20049;-77
2023/04/07 12:39:19;;;;;;;9.48;7.78;;;;;;;;;;5035831;28;20371;-77
2023/04/07 12:41:46;;;;;;;9.18;7.68;;;;;;;;;;5020662;28;20051;-77
2023/04/07 12:44:12;;;;;;;10.40;8.38;;;;;;;;;;5037793;28;20072;-77
2023/04/07 12:46:38;;;;;;;9.43;8.23;;;;;;;;;;5021080;28;20049;-77
2023/04/07 12:49:04;;;;;;;9.88;8.40;;;;;;;;;;5055199;28;20089;-77
2023/04/07 12:51:32;;;;;;;9.70;8.20;;;;;;;;;;5055202;28;20052;-78
2023/04/07 12:53:59;;;;;;;8.68;7.78;;;;;;;;;;5037707;28;20147;-77
2023/04/07 12:56:26;;;;;;;11.55;8.23;;;;;;;;;;5055021;28;20110;-77
2023/04/07 12:58:53;;;;;;;9.70;8.45;;;;;;;;;;5054884;28;20450;-77
2023/04/07 13:01:19;;;;;;;10.20;7.90;;;;;;;;;;5054054;28;20102;-77
2023/04/07 13:03:45;;;;;;;9.77;8.10;;;;;;;;;;5055001;28;20044;-78
2023/04/07 13:06:11;;;;;;;10.15;8.57;;;;;;;;;;5055073;28;20044;-78
2023/04/07 13:08:38;;;;;;;10.15;8.85;;;;;;;;;;5054804;28;20495;-78
2023/04/07 13:11:04;;;;;;;11.30;8.57;;;;;;;;;;5054744;28;20515;-78
2023/04/07 13:13:30;;;;;;;10.90;8.15;;;;;;;;;;5054769;28;20466;-78
2023/04/07 13:15:57;;;;;;;9.60;8.38;;;;;;;;;;5054828;28;20494;-78
2023/04/07 13:18:23;;;;;;;11.05;8.23;;;;;;;;;;5054629;28;20044;-77
2023/04/07 13:20:49;;;;;;;9.40;8.05;;;;;;;;;;5036760;28;20127;-77
2023/04/07 13:23:15;;;;;;;10.23;8.73;;;;;;;;;;5054493;28;20124;-77
2023/04/07 13:25:41;;;;;;;10.38;8.15;;;;;;;;;;5053734;28;20081;-78
2023/04/07 13:28:07;;;;;;;10.93;8.20;;;;;;;;;;5036904;28;20124;-77
2023/04/07 13:30:33;;;;;;;11.35;8.48;;;;;;;;;;5039606;28;20048;-76
2023/04/07 13:32:59;;;;;;;11.20;8.57;;;;;;;;;;5054357;28;20052;-77
2023/04/07 13:35:26;;;;;;;11.85;8.18;;;;;;;;;;5030949;28;20041;-77
2023/04/07 13:37:52;;;;;;;11.98;7.88;;;;;;;;;;5054212;28;20064;-77
2023/04/07 13:40:18;;;;;;;9.07;7.93;;;;;;;;;;5054543;28;20045;-77
2023/04/07 13:42:44;;;;;;;10.52;8.60;;;;;;;;;;5038767;28;20493;-78
2023/04/07 13:45:10;;;;;;;9.75;8.27;;;;;;;;;;5034182;28;20045;-78
2023/04/07 13:47:36;;;;;;;9.75;8.43;;;;;;;;;;5033597;28;20049;-78
2023/04/07 13:50:03;;;;;;;10.43;8.55;;;;;;;;;;5031480;28;20075;-78
2023/04/07 13:52:31;;;;;;;10.27;8.15;;;;;;;;;;5032048;28;20045;-78
2023/04/07 13:54:57;;;;;;;9.20;7.72;;;;;;;;;;5031726;28;20346;-78
2023/04/07 13:57:23;;;;;;;8.77;7.88;;;;;;;;;;5034350;28;20041;-78
2023/04/07 13:59:51;;;;;;;10.15;8.18;;;;;;;;;;5030468;28;20041;-77
2023/04/07 14:02:18;;;;;;;10.00;7.75;;;;;;;;;;5033984;28;20056;-77
2023/04/07 14:04:44;;;;;;;10.98;8.45;;;;;;;;;;5034027;28;20056;-77
2023/04/07 14:07:10;;;;;;;10.18;8.20;;;;;;;;;;5014680;28;20046;-78
2023/04/07 14:09:37;;;;;;;9.93;8.30;;;;;;;;;;5033007;28;20131;-77
2023/04/07 14:12:03;;;;;;;9.40;7.80;;;;;;;;;;5032076;28;20109;-78
2023/04/07 14:14:30;;;;;;;12.68;8.30;;;;;;;;;;5034153;28;20053;-78
2023/04/07 14:16:56;;;;;;;11.88;8.38;;;;;;;;;;5034112;28;20464;-78
2023/04/07 14:19:23;;;;;;;10.77;8.52;;;;;;;;;;4999789;28;20494;-78
2023/04/07 14:21:49;;;;;;;11.82;8.27;;;;;;;;;;5014524;28;20405;-78